sensor_id;sensor_type;location;lat;lon;timestamp;P1;durP1;ratioP1;P2;durP2;ratioP2
35646;SDS011;28680;45.642;13.756;2023-09-18T00:04:14;7.93;;;5.60;;
35646;SDS011;28680;45.642;13.756;2023-09-18T00:06:39;7.25;;;5.53;;
35646;SDS011;28680;45.642;13.756;2023-09-18T00:09:05;8.15;;;5.93;;
35646;SDS011;28680;45.642;13.756;2023-09-18T00:11:36;8.88;;;6.28;;
35646;SDS011;28680;45.642;13.756;2023-09-18T00:14:03;10.68;;;6.65;;
35646;SDS011;28680;45.642;13.756;2023-09-18T00:16:37;8.43;;;5.88;;
35646;SDS011;28680;45.642;13.756;2023-09-18T00:19:07;8.55;;;6.70;;
35646;SDS011;28680;45.642;13.756;2023-09-18T00:21:41;9.10;;;7.07;;
35646;SDS011;28680;45.642;13.756;2023-09-18T00:24:07;12.48;;;8.20;;
35646;SDS011;28680;45.642;13.756;2023-09-18T00:26:39;10.80;;;7.88;;
35646;SDS011;28680;45.642;13.756;2023-09-18T00:29:05;12.90;;;7.90;;
35646;SDS011;28680;45.642;13.756;2023-09-18T00:31:35;10.10;;;7.35;;
35646;SDS011;28680;45.642;13.756;2023-09-18T00:34:04;10.30;;;7.47;;
35646;SDS011;28680;45.642;13.756;2023-09-18T00:36:35;10.18;;;7.32;;
35646;SDS011;28680;45.642;13.756;2023-09-18T00:39:10;10.35;;;6.35;;
35646;SDS011;28680;45.642;13.756;2023-09-18T00:41:48;7.22;;;6.05;;
35646;SDS011;28680;45.642;13.756;2023-09-18T00:44:19;7.13;;;5.88;;
35646;SDS011;28680;45.642;13.756;2023-09-18T00:49:39;9.32;;;5.55;;
35646;SDS011;28680;45.642;13.756;2023-09-18T00:52:27;8.20;;;6.00;;
35646;SDS011;28680;45.642;13.756;2023-09-18T00:54:59;8.20;;;5.68;;
35646;SDS011;28680;45.642;13.756;2023-09-18T00:57:29;7.75;;;5.60;;
35646;SDS011;28680;45.642;13.756;2023-09-18T00:59:55;9.90;;;5.63;;
35646;SDS011;28680;45.642;13.756;2023-09-18T01:02:37;7.97;;;5.80;;
35646;SDS011;28680;45.642;13.756;2023-09-18T01:05:03;8.30;;;5.93;;
35646;SDS011;28680;45.642;13.756;2023-09-18T01:07:44;8.32;;;5.90;;
35646;SDS011;28680;45.642;13.756;2023-09-18T01:10:11;7.65;;;5.90;;
35646;SDS011;28680;45.642;13.756;2023-09-18T01:15:54;6.57;;;5.20;;
35646;SDS011;28680;45.642;13.756;2023-09-18T01:18:26;9.35;;;5.63;;
35646;SDS011;28680;45.642;13.756;2023-09-18T01:20:56;9.18;;;5.63;;
35646;SDS011;28680;45.642;13.756;2023-09-18T01:25:55;8.95;;;5.40;;
35646;SDS011;28680;45.642;13.756;2023-09-18T01:28:23;8.82;;;5.60;;
35646;SDS011;28680;45.642;13.756;2023-09-18T01:30:55;8.60;;;5.57;;
35646;SDS011;28680;45.642;13.756;2023-09-18T01:33:24;7.05;;;5.50;;
35646;SDS011;28680;45.642;13.756;2023-09-18T01:35:51;11.90;;;5.95;;
35646;SDS011;28680;45.642;13.756;2023-09-18T01:38:45;7.18;;;5.53;;
35646;SDS011;28680;45.642;13.756;2023-09-18T01:41:49;6.93;;;5.13;;
35646;SDS011;28680;45.642;13.756;2023-09-18T01:44:15;9.80;;;5.60;;
35646;SDS011;28680;45.642;13.756;2023-09-18T01:46:43;9.57;;;5.60;;
35646;SDS011;28680;45.642;13.756;2023-09-18T01:49:13;10.07;;;5.53;;
35646;SDS011;28680;45.642;13.756;2023-09-18T01:52:07;7.03;;;4.90;;
35646;SDS011;28680;45.642;13.756;2023-09-18T01:54:34;7.00;;;5.13;;
35646;SDS011;28680;45.642;13.756;2023-09-18T01:59:57;9.00;;;5.47;;
35646;SDS011;28680;45.642;13.756;2023-09-18T02:02:23;8.77;;;5.22;;
35646;SDS011;28680;45.642;13.756;2023-09-18T02:05:04;7.07;;;4.88;;
35646;SDS011;28680;45.642;13.756;2023-09-18T02:08:09;6.72;;;4.90;;
35646;SDS011;28680;45.642;13.756;2023-09-18T02:10:38;6.95;;;5.18;;
35646;SDS011;28680;45.642;13.756;2023-09-18T02:13:07;7.45;;;4.95;;
35646;SDS011;28680;45.642;13.756;2023-09-18T02:15:32;8.18;;;5.03;;
35646;SDS011;28680;45.642;13.756;2023-09-18T02:32:34;5.70;;;4.68;;
35646;SDS011;28680;45.642;13.756;2023-09-18T02:35:02;6.68;;;4.75;;
35646;SDS011;28680;45.642;13.756;2023-09-18T02:37:38;6.53;;;5.18;;
35646;SDS011;28680;45.642;13.756;2023-09-18T02:40:11;6.80;;;5.22;;
35646;SDS011;28680;45.642;13.756;2023-09-18T02:43:03;9.68;;;4.85;;
35646;SDS011;28680;45.642;13.756;2023-09-18T02:49:10;6.55;;;4.50;;
35646;SDS011;28680;45.642;13.756;2023-09-18T02:51:36;7.00;;;5.20;;
35646;SDS011;28680;45.642;13.756;2023-09-18T02:54:08;9.63;;;5.65;;
35646;SDS011;28680;45.642;13.756;2023-09-18T02:56:37;8.98;;;5.10;;
35646;SDS011;28680;45.642;13.756;2023-09-18T02:59:04;5.25;;;4.75;;
35646;SDS011;28680;45.642;13.756;2023-09-18T03:01:45;7.93;;;4.85;;
35646;SDS011;28680;45.642;13.756;2023-09-18T03:04:25;10.20;;;5.50;;
35646;SDS011;28680;45.642;13.756;2023-09-18T03:07:06;6.25;;;5.03;;
35646;SDS011;28680;45.642;13.756;2023-09-18T03:09:54;6.40;;;4.93;;
35646;SDS011;28680;45.642;13.756;2023-09-18T03:12:26;8.18;;;5.18;;
35646;SDS011;28680;45.642;13.756;2023-09-18T03:15:11;8.93;;;5.47;;
35646;SDS011;28680;45.642;13.756;2023-09-18T03:25:43;6.22;;;5.10;;
35646;SDS011;28680;45.642;13.756;2023-09-18T03:28:34;9.23;;;5.18;;
35646;SDS011;28680;45.642;13.756;2023-09-18T03:31:13;11.15;;;5.68;;
35646;SDS011;28680;45.642;13.756;2023-09-18T03:33:39;6.63;;;4.97;;
35646;SDS011;28680;45.642;13.756;2023-09-18T03:36:06;9.10;;;5.22;;
35646;SDS011;28680;45.642;13.756;2023-09-18T03:38:37;12.80;;;5.53;;
35646;SDS011;28680;45.642;13.756;2023-09-18T03:41:12;7.35;;;5.25;;
35646;SDS011;28680;45.642;13.756;2023-09-18T03:43:44;8.07;;;5.20;;
35646;SDS011;28680;45.642;13.756;2023-09-18T04:02:55;7.18;;;4.65;;
35646;SDS011;28680;45.642;13.756;2023-09-18T04:05:31;8.25;;;5.38;;
35646;SDS011;28680;45.642;13.756;2023-09-18T04:14:35;7.90;;;5.32;;
35646;SDS011;28680;45.642;13.756;2023-09-18T04:19:30;8.00;;;5.65;;
35646;SDS011;28680;45.642;13.756;2023-09-18T04:25:06;8.00;;;5.20;;
35646;SDS011;28680;45.642;13.756;2023-09-18T04:27:32;9.00;;;5.20;;
35646;SDS011;28680;45.642;13.756;2023-09-18T04:33:11;8.65;;;5.10;;
35646;SDS011;28680;45.642;13.756;2023-09-18T04:38:53;9.80;;;5.45;;
35646;SDS011;28680;45.642;13.756;2023-09-18T04:44:35;7.47;;;5.22;;
35646;SDS011;28680;45.642;13.756;2023-09-18T04:47:12;8.18;;;5.03;;
35646;SDS011;28680;45.642;13.756;2023-09-18T04:49:44;7.65;;;5.55;;
35646;SDS011;28680;45.642;13.756;2023-09-18T04:52:26;8.35;;;5.05;;
35646;SDS011;28680;45.642;13.756;2023-09-18T05:00:38;13.50;;;7.38;;
35646;SDS011;28680;45.642;13.756;2023-09-18T05:11:34;8.23;;;5.70;;
35646;SDS011;28680;45.642;13.756;2023-09-18T05:14:07;7.00;;;5.53;;
35646;SDS011;28680;45.642;13.756;2023-09-18T05:16:33;10.82;;;6.18;;
35646;SDS011;28680;45.642;13.756;2023-09-18T05:20:03;10.52;;;6.55;;
35646;SDS011;28680;45.642;13.756;2023-09-18T05:23:00;11.27;;;5.60;;
35646;SDS011;28680;45.642;13.756;2023-09-18T05:38:00;8.98;;;5.43;;
35646;SDS011;28680;45.642;13.756;2023-09-18T06:23:46;13.88;;;6.35;;
35646;SDS011;28680;45.642;13.756;2023-09-18T06:26:17;12.18;;;6.13;;
35646;SDS011;28680;45.642;13.756;2023-09-18T06:49:46;12.95;;;7.05;;
35646;SDS011;28680;45.642;13.756;2023-09-18T06:52:14;12.30;;;7.38;;
35646;SDS011;28680;45.642;13.756;2023-09-18T06:54:43;18.60;;;7.60;;
35646;SDS011;28680;45.642;13.756;2023-09-18T06:57:09;13.70;;;7.25;;
35646;SDS011;28680;45.642;13.756;2023-09-18T06:59:40;12.93;;;7.35;;
35646;SDS011;28680;45.642;13.756;2023-09-18T07:02:06;12.75;;;7.53;;
35646;SDS011;28680;45.642;13.756;2023-09-18T07:07:28;16.75;;;8.05;;
35646;SDS011;28680;45.642;13.756;2023-09-18T07:10:03;13.48;;;7.18;;
35646;SDS011;28680;45.642;13.756;2023-09-18T07:19:45;19.85;;;7.72;;
35646;SDS011;28680;45.642;13.756;2023-09-18T07:24:59;22.77;;;9.05;;
35646;SDS011;28680;45.642;13.756;2023-09-18T07:28:31;15.80;;;8.20;;
35646;SDS011;28680;45.642;13.756;2023-09-18T08:04:41;9.65;;;5.80;;
35646;SDS011;28680;45.642;13.756;2023-09-18T08:07:26;13.45;;;5.90;;
35646;SDS011;28680;45.642;13.756;2023-09-18T08:10:17;11.85;;;5.45;;
35646;SDS011;28680;45.642;13.756;2023-09-18T08:13:13;10.30;;;5.78;;
35646;SDS011;28680;45.642;13.756;2023-09-18T08:15:43;12.77;;;5.43;;
35646;SDS011;28680;45.642;13.756;2023-09-18T08:18:14;10.68;;;5.50;;
35646;SDS011;28680;45.642;13.756;2023-09-18T08:20:52;10.07;;;5.05;;
35646;SDS011;28680;45.642;13.756;2023-09-18T08:23:29;10.68;;;5.07;;
35646;SDS011;28680;45.642;13.756;2023-09-18T08:41:31;6.90;;;3.38;;
35646;SDS011;28680;45.642;13.756;2023-09-18T08:44:09;7.53;;;3.10;;
35646;SDS011;28680;45.642;13.756;2023-09-18T08:46:36;6.80;;;3.30;;
35646;SDS011;28680;45.642;13.756;2023-09-18T08:52:12;10.82;;;3.63;;
35646;SDS011;28680;45.642;13.756;2023-09-18T08:54:43;11.32;;;3.33;;
35646;SDS011;28680;45.642;13.756;2023-09-18T09:00:39;9.18;;;3.90;;
35646;SDS011;28680;45.642;13.756;2023-09-18T09:03:08;9.35;;;3.92;;
35646;SDS011;28680;45.642;13.756;2023-09-18T09:06:12;8.40;;;4.45;;
35646;SDS011;28680;45.642;13.756;2023-09-18T09:08:38;9.80;;;4.22;;
35646;SDS011;28680;45.642;13.756;2023-09-18T09:11:04;12.02;;;5.72;;
35646;SDS011;28680;45.642;13.756;2023-09-18T09:13:30;16.63;;;5.00;;
35646;SDS011;28680;45.642;13.756;2023-09-18T09:15:59;8.60;;;4.68;;
35646;SDS011;28680;45.642;13.756;2023-09-18T09:18:28;8.10;;;4.38;;
35646;SDS011;28680;45.642;13.756;2023-09-18T09:21:01;7.50;;;4.28;;
35646;SDS011;28680;45.642;13.756;2023-09-18T09:23:51;13.02;;;4.22;;
35646;SDS011;28680;45.642;13.756;2023-09-18T09:26:19;10.20;;;5.22;;
35646;SDS011;28680;45.642;13.756;2023-09-18T09:28:50;9.98;;;5.05;;
35646;SDS011;28680;45.642;13.756;2023-09-18T09:31:26;8.85;;;4.50;;
35646;SDS011;28680;45.642;13.756;2023-09-18T09:33:55;5.45;;;4.07;;
35646;SDS011;28680;45.642;13.756;2023-09-18T09:36:23;7.43;;;4.75;;
35646;SDS011;28680;45.642;13.756;2023-09-18T09:38:54;6.70;;;3.72;;
35646;SDS011;28680;45.642;13.756;2023-09-18T09:41:24;4.93;;;3.90;;
35646;SDS011;28680;45.642;13.756;2023-09-18T09:43:53;9.18;;;4.40;;
35646;SDS011;28680;45.642;13.756;2023-09-18T09:46:20;7.18;;;4.13;;
35646;SDS011;28680;45.642;13.756;2023-09-18T10:02:31;11.77;;;4.22;;
35646;SDS011;28680;45.642;13.756;2023-09-18T10:04:59;9.38;;;4.72;;
35646;SDS011;28680;45.642;13.756;2023-09-18T10:07:26;13.95;;;5.38;;
35646;SDS011;28680;45.642;13.756;2023-09-18T10:09:52;8.38;;;4.75;;
35646;SDS011;28680;45.642;13.756;2023-09-18T10:12:19;8.00;;;4.32;;
35646;SDS011;28680;45.642;13.756;2023-09-18T10:14:46;9.27;;;4.60;;
35646;SDS011;28680;45.642;13.756;2023-09-18T10:17:18;10.10;;;4.38;;
35646;SDS011;28680;45.642;13.756;2023-09-18T10:19:54;12.25;;;4.97;;
35646;SDS011;28680;45.642;13.756;2023-09-18T10:22:39;9.13;;;4.53;;
35646;SDS011;28680;45.642;13.756;2023-09-18T10:25:17;8.57;;;4.40;;
35646;SDS011;28680;45.642;13.756;2023-09-18T10:27:50;11.15;;;4.60;;
35646;SDS011;28680;45.642;13.756;2023-09-18T10:33:22;8.95;;;4.82;;
35646;SDS011;28680;45.642;13.756;2023-09-18T10:35:48;8.93;;;4.88;;
35646;SDS011;28680;45.642;13.756;2023-09-18T10:38:14;8.70;;;5.07;;
35646;SDS011;28680;45.642;13.756;2023-09-18T10:40:41;11.07;;;5.32;;
35646;SDS011;28680;45.642;13.756;2023-09-18T10:43:08;13.00;;;5.57;;
35646;SDS011;28680;45.642;13.756;2023-09-18T10:45:37;7.90;;;5.00;;
35646;SDS011;28680;45.642;13.756;2023-09-18T10:48:06;8.18;;;5.13;;
35646;SDS011;28680;45.642;13.756;2023-09-18T10:50:34;7.50;;;4.60;;
35646;SDS011;28680;45.642;13.756;2023-09-18T10:53:50;7.30;;;4.97;;
35646;SDS011;28680;45.642;13.756;2023-09-18T10:56:19;9.48;;;5.00;;
35646;SDS011;28680;45.642;13.756;2023-09-18T10:59:02;8.65;;;4.93;;
35646;SDS011;28680;45.642;13.756;2023-09-18T11:04:52;10.35;;;4.90;;
35646;SDS011;28680;45.642;13.756;2023-09-18T11:32:53;8.68;;;4.78;;
35646;SDS011;28680;45.642;13.756;2023-09-18T11:35:20;10.07;;;4.95;;
35646;SDS011;28680;45.642;13.756;2023-09-18T11:37:47;11.77;;;5.30;;
35646;SDS011;28680;45.642;13.756;2023-09-18T11:48:24;6.65;;;5.20;;
35646;SDS011;28680;45.642;13.756;2023-09-18T12:28:05;9.65;;;5.10;;
35646;SDS011;28680;45.642;13.756;2023-09-18T12:30:57;11.93;;;5.40;;
35646;SDS011;28680;45.642;13.756;2023-09-18T12:34:35;9.07;;;4.85;;
35646;SDS011;28680;45.642;13.756;2023-09-18T12:37:08;8.80;;;5.10;;
35646;SDS011;28680;45.642;13.756;2023-09-18T12:39:56;11.90;;;4.93;;
35646;SDS011;28680;45.642;13.756;2023-09-18T12:42:38;7.60;;;4.90;;
35646;SDS011;28680;45.642;13.756;2023-09-18T12:45:24;10.60;;;4.63;;
35646;SDS011;28680;45.642;13.756;2023-09-18T13:09:20;11.73;;;5.93;;
35646;SDS011;28680;45.642;13.756;2023-09-18T13:11:53;12.60;;;5.82;;
35646;SDS011;28680;45.642;13.756;2023-09-18T13:14:28;10.02;;;5.78;;
35646;SDS011;28680;45.642;13.756;2023-09-18T13:23:27;10.68;;;5.65;;
35646;SDS011;28680;45.642;13.756;2023-09-18T13:29:11;9.65;;;5.80;;
35646;SDS011;28680;45.642;13.756;2023-09-18T13:31:37;7.53;;;5.85;;
35646;SDS011;28680;45.642;13.756;2023-09-18T13:34:12;9.35;;;6.18;;
35646;SDS011;28680;45.642;13.756;2023-09-18T13:39:13;11.80;;;6.45;;
35646;SDS011;28680;45.642;13.756;2023-09-18T13:41:57;10.93;;;5.55;;
35646;SDS011;28680;45.642;13.756;2023-09-18T13:44:29;9.70;;;5.15;;
35646;SDS011;28680;45.642;13.756;2023-09-18T13:47:09;7.80;;;4.70;;
35646;SDS011;28680;45.642;13.756;2023-09-18T13:49:34;12.77;;;6.30;;
35646;SDS011;28680;45.642;13.756;2023-09-18T13:52:06;7.10;;;5.10;;
35646;SDS011;28680;45.642;13.756;2023-09-18T13:54:35;10.02;;;5.38;;
35646;SDS011;28680;45.642;13.756;2023-09-18T13:57:18;11.48;;;5.65;;
35646;SDS011;28680;45.642;13.756;2023-09-18T13:59:45;11.25;;;5.07;;
35646;SDS011;28680;45.642;13.756;2023-09-18T14:02:12;9.23;;;5.68;;
35646;SDS011;28680;45.642;13.756;2023-09-18T14:04:38;11.93;;;5.13;;
35646;SDS011;28680;45.642;13.756;2023-09-18T14:07:05;12.85;;;6.07;;
35646;SDS011;28680;45.642;13.756;2023-09-18T14:09:31;9.27;;;5.30;;
35646;SDS011;28680;45.642;13.756;2023-09-18T14:11:57;9.80;;;5.07;;
35646;SDS011;28680;45.642;13.756;2023-09-18T14:14:23;10.02;;;4.95;;
35646;SDS011;28680;45.642;13.756;2023-09-18T14:16:49;8.95;;;4.93;;
35646;SDS011;28680;45.642;13.756;2023-09-18T14:19:18;8.60;;;5.10;;
35646;SDS011;28680;45.642;13.756;2023-09-18T14:21:45;9.27;;;5.30;;
35646;SDS011;28680;45.642;13.756;2023-09-18T14:24:11;7.95;;;5.13;;
35646;SDS011;28680;45.642;13.756;2023-09-18T14:26:37;11.90;;;5.82;;
35646;SDS011;28680;45.642;13.756;2023-09-18T14:29:10;9.27;;;5.38;;
35646;SDS011;28680;45.642;13.756;2023-09-18T14:31:36;8.82;;;5.03;;
35646;SDS011;28680;45.642;13.756;2023-09-18T14:34:02;9.07;;;5.05;;
35646;SDS011;28680;45.642;13.756;2023-09-18T14:36:34;8.77;;;5.03;;
35646;SDS011;28680;45.642;13.756;2023-09-18T14:39:01;8.40;;;5.18;;
35646;SDS011;28680;45.642;13.756;2023-09-18T14:41:34;9.38;;;5.10;;
35646;SDS011;28680;45.642;13.756;2023-09-18T14:44:00;7.75;;;5.25;;
35646;SDS011;28680;45.642;13.756;2023-09-18T14:46:29;9.10;;;5.00;;
35646;SDS011;28680;45.642;13.756;2023-09-18T14:54:08;8.15;;;5.00;;
35646;SDS011;28680;45.642;13.756;2023-09-18T14:56:33;10.93;;;5.45;;
35646;SDS011;28680;45.642;13.756;2023-09-18T14:59:01;8.77;;;5.32;;
35646;SDS011;28680;45.642;13.756;2023-09-18T15:01:27;8.25;;;5.30;;
35646;SDS011;28680;45.642;13.756;2023-09-18T15:03:53;12.88;;;6.15;;
35646;SDS011;28680;45.642;13.756;2023-09-18T15:06:20;9.05;;;6.43;;
35646;SDS011;28680;45.642;13.756;2023-09-18T15:08:46;9.23;;;5.38;;
35646;SDS011;28680;45.642;13.756;2023-09-18T15:11:13;13.18;;;5.90;;
35646;SDS011;28680;45.642;13.756;2023-09-18T15:13:42;9.57;;;5.80;;
35646;SDS011;28680;45.642;13.756;2023-09-18T15:16:08;13.05;;;6.57;;
35646;SDS011;28680;45.642;13.756;2023-09-18T15:18:35;10.05;;;5.35;;
35646;SDS011;28680;45.642;13.756;2023-09-18T15:21:00;9.23;;;5.63;;
35646;SDS011;28680;45.642;13.756;2023-09-18T15:23:27;7.57;;;5.22;;
35646;SDS011;28680;45.642;13.756;2023-09-18T15:25:54;10.25;;;6.45;;
35646;SDS011;28680;45.642;13.756;2023-09-18T15:28:24;14.60;;;7.78;;
35646;SDS011;28680;45.642;13.756;2023-09-18T15:30:52;7.18;;;5.50;;
35646;SDS011;28680;45.642;13.756;2023-09-18T15:33:18;12.07;;;6.88;;
35646;SDS011;28680;45.642;13.756;2023-09-18T15:35:46;8.95;;;6.57;;
35646;SDS011;28680;45.642;13.756;2023-09-18T15:38:12;8.93;;;5.97;;
35646;SDS011;28680;45.642;13.756;2023-09-18T15:40:38;10.18;;;6.80;;
35646;SDS011;28680;45.642;13.756;2023-09-18T15:43:04;11.75;;;7.15;;
35646;SDS011;28680;45.642;13.756;2023-09-18T15:45:30;14.60;;;7.70;;
35646;SDS011;28680;45.642;13.756;2023-09-18T15:47:56;10.50;;;6.80;;
35646;SDS011;28680;45.642;13.756;2023-09-18T15:50:22;13.45;;;7.18;;
35646;SDS011;28680;45.642;13.756;2023-09-18T15:52:48;19.02;;;8.00;;
35646;SDS011;28680;45.642;13.756;2023-09-18T15:55:14;12.32;;;7.50;;
35646;SDS011;28680;45.642;13.756;2023-09-18T15:57:40;12.77;;;7.75;;
35646;SDS011;28680;45.642;13.756;2023-09-18T16:00:09;14.23;;;7.25;;
35646;SDS011;28680;45.642;13.756;2023-09-18T16:02:40;10.82;;;7.43;;
35646;SDS011;28680;45.642;13.756;2023-09-18T16:05:07;11.38;;;7.65;;
35646;SDS011;28680;45.642;13.756;2023-09-18T16:07:33;10.50;;;6.75;;
35646;SDS011;28680;45.642;13.756;2023-09-18T16:10:00;9.85;;;7.20;;
35646;SDS011;28680;45.642;13.756;2023-09-18T16:12:32;12.95;;;7.45;;
35646;SDS011;28680;45.642;13.756;2023-09-18T16:15:01;9.02;;;6.63;;
35646;SDS011;28680;45.642;13.756;2023-09-18T16:17:29;10.18;;;7.07;;
35646;SDS011;28680;45.642;13.756;2023-09-18T16:19:56;12.63;;;7.22;;
35646;SDS011;28680;45.642;13.756;2023-09-18T16:22:24;11.05;;;6.95;;
35646;SDS011;28680;45.642;13.756;2023-09-18T16:24:50;10.95;;;6.80;;
35646;SDS011;28680;45.642;13.756;2023-09-18T16:27:16;13.70;;;7.47;;
35646;SDS011;28680;45.642;13.756;2023-09-18T16:29:42;10.43;;;6.78;;
35646;SDS011;28680;45.642;13.756;2023-09-18T16:32:08;11.00;;;7.07;;
35646;SDS011;28680;45.642;13.756;2023-09-18T16:34:35;17.25;;;8.25;;
35646;SDS011;28680;45.642;13.756;2023-09-18T16:37:01;13.35;;;7.88;;
35646;SDS011;28680;45.642;13.756;2023-09-18T16:39:28;13.25;;;7.13;;
35646;SDS011;28680;45.642;13.756;2023-09-18T16:41:54;13.38;;;7.18;;
35646;SDS011;28680;45.642;13.756;2023-09-18T16:44:20;11.25;;;7.15;;
35646;SDS011;28680;45.642;13.756;2023-09-18T16:46:46;11.70;;;7.28;;
35646;SDS011;28680;45.642;13.756;2023-09-18T16:49:12;11.65;;;8.10;;
35646;SDS011;28680;45.642;13.756;2023-09-18T16:51:39;15.93;;;7.50;;
35646;SDS011;28680;45.642;13.756;2023-09-18T16:54:25;13.95;;;7.70;;
35646;SDS011;28680;45.642;13.756;2023-09-18T16:56:51;13.38;;;7.90;;
35646;SDS011;28680;45.642;13.756;2023-09-18T16:59:17;11.88;;;7.32;;
35646;SDS011;28680;45.642;13.756;2023-09-18T17:01:45;11.98;;;7.65;;
35646;SDS011;28680;45.642;13.756;2023-09-18T17:04:10;11.88;;;7.13;;
35646;SDS011;28680;45.642;13.756;2023-09-18T17:06:37;13.35;;;7.25;;
35646;SDS011;28680;45.642;13.756;2023-09-18T17:09:06;13.48;;;6.93;;
35646;SDS011;28680;45.642;13.756;2023-09-18T17:11:33;12.10;;;7.22;;
35646;SDS011;28680;45.642;13.756;2023-09-18T17:14:07;16.70;;;7.07;;
35646;SDS011;28680;45.642;13.756;2023-09-18T17:16:34;12.05;;;6.68;;
35646;SDS011;28680;45.642;13.756;2023-09-18T17:19:01;12.18;;;7.53;;
35646;SDS011;28680;45.642;13.756;2023-09-18T17:21:44;11.85;;;6.93;;
35646;SDS011;28680;45.642;13.756;2023-09-18T17:24:09;12.38;;;7.03;;
35646;SDS011;28680;45.642;13.756;2023-09-18T17:26:35;15.05;;;7.50;;
35646;SDS011;28680;45.642;13.756;2023-09-18T17:46:01;12.68;;;7.10;;
35646;SDS011;28680;45.642;13.756;2023-09-18T17:58:47;11.90;;;7.32;;
35646;SDS011;28680;45.642;13.756;2023-09-18T18:07:33;12.50;;;7.63;;
35646;SDS011;28680;45.642;13.756;2023-09-18T18:44:31;12.23;;;6.53;;
35646;SDS011;28680;45.642;13.756;2023-09-18T18:46:57;8.38;;;6.20;;
35646;SDS011;28680;45.642;13.756;2023-09-18T18:49:33;10.50;;;6.13;;
35646;SDS011;28680;45.642;13.756;2023-09-18T18:51:58;12.40;;;6.38;;
35646;SDS011;28680;45.642;13.756;2023-09-18T18:54:30;11.45;;;6.22;;
35646;SDS011;28680;45.642;13.756;2023-09-18T18:57:16;14.10;;;5.75;;
35646;SDS011;28680;45.642;13.756;2023-09-18T18:59:42;9.63;;;5.70;;
35646;SDS011;28680;45.642;13.756;2023-09-18T19:02:08;13.45;;;5.75;;
35646;SDS011;28680;45.642;13.756;2023-09-18T19:24:52;10.00;;;5.70;;
35646;SDS011;28680;45.642;13.756;2023-09-18T19:27:21;15.70;;;5.40;;
35646;SDS011;28680;45.642;13.756;2023-09-18T19:29:51;11.15;;;5.78;;
35646;SDS011;28680;45.642;13.756;2023-09-18T20:21:34;10.43;;;5.30;;
35646;SDS011;28680;45.642;13.756;2023-09-18T20:26:55;15.82;;;6.10;;
35646;SDS011;28680;45.642;13.756;2023-09-18T20:29:21;16.23;;;6.40;;
35646;SDS011;28680;45.642;13.756;2023-09-18T20:31:50;16.63;;;7.00;;
35646;SDS011;28680;45.642;13.756;2023-09-18T21:03:42;18.83;;;6.88;;
35646;SDS011;28680;45.642;13.756;2023-09-18T21:23:21;16.77;;;7.00;;
35646;SDS011;28680;45.642;13.756;2023-09-18T21:37:28;15.55;;;6.75;;
35646;SDS011;28680;45.642;13.756;2023-09-18T21:40:01;14.13;;;6.00;;
35646;SDS011;28680;45.642;13.756;2023-09-18T21:42:28;17.55;;;7.70;;
35646;SDS011;28680;45.642;13.756;2023-09-18T21:46:06;19.33;;;6.68;;
35646;SDS011;28680;45.642;13.756;2023-09-18T21:48:31;18.23;;;6.90;;
35646;SDS011;28680;45.642;13.756;2023-09-18T21:50:58;23.50;;;6.50;;
35646;SDS011;28680;45.642;13.756;2023-09-18T21:53:24;18.83;;;6.25;;
35646;SDS011;28680;45.642;13.756;2023-09-18T21:55:50;17.50;;;6.00;;
35646;SDS011;28680;45.642;13.756;2023-09-18T21:58:19;20.58;;;6.05;;
35646;SDS011;28680;45.642;13.756;2023-09-18T22:03:22;18.85;;;6.35;;
35646;SDS011;28680;45.642;13.756;2023-09-18T22:05:48;23.75;;;6.20;;
35646;SDS011;28680;45.642;13.756;2023-09-18T22:08:14;17.23;;;6.63;;
35646;SDS011;28680;45.642;13.756;2023-09-18T22:10:39;27.33;;;7.40;;
35646;SDS011;28680;45.642;13.756;2023-09-18T22:13:05;17.50;;;5.78;;
35646;SDS011;28680;45.642;13.756;2023-09-18T22:15:31;20.73;;;6.20;;
35646;SDS011;28680;45.642;13.756;2023-09-18T22:17:57;19.38;;;6.93;;
35646;SDS011;28680;45.642;13.756;2023-09-18T22:20:23;19.02;;;7.22;;
35646;SDS011;28680;45.642;13.756;2023-09-18T22:22:48;21.83;;;7.65;;
35646;SDS011;28680;45.642;13.756;2023-09-18T22:25:14;22.67;;;7.38;;
35646;SDS011;28680;45.642;13.756;2023-09-18T22:27:40;16.30;;;6.57;;
35646;SDS011;28680;45.642;13.756;2023-09-18T22:30:06;19.38;;;7.13;;
35646;SDS011;28680;45.642;13.756;2023-09-18T22:32:34;18.58;;;7.35;;
35646;SDS011;28680;45.642;13.756;2023-09-18T22:35:07;18.50;;;7.18;;
35646;SDS011;28680;45.642;13.756;2023-09-18T22:37:35;24.80;;;7.88;;
35646;SDS011;28680;45.642;13.756;2023-09-18T22:55:27;27.40;;;7.35;;
35646;SDS011;28680;45.642;13.756;2023-09-18T22:57:55;22.52;;;6.93;;
35646;SDS011;28680;45.642;13.756;2023-09-18T23:00:25;20.90;;;7.70;;
35646;SDS011;28680;45.642;13.756;2023-09-18T23:02:56;19.00;;;7.15;;
35646;SDS011;28680;45.642;13.756;2023-09-18T23:05:22;14.88;;;7.10;;
35646;SDS011;28680;45.642;13.756;2023-09-18T23:07:55;20.60;;;7.40;;
35646;SDS011;28680;45.642;13.756;2023-09-18T23:10:25;18.50;;;6.65;;
35646;SDS011;28680;45.642;13.756;2023-09-18T23:12:51;17.40;;;6.78;;
35646;SDS011;28680;45.642;13.756;2023-09-18T23:15:18;19.23;;;7.40;;
35646;SDS011;28680;45.642;13.756;2023-09-18T23:17:45;28.10;;;7.68;;
35646;SDS011;28680;45.642;13.756;2023-09-18T23:20:12;21.33;;;7.70;;
35646;SDS011;28680;45.642;13.756;2023-09-18T23:22:40;25.48;;;7.63;;
35646;SDS011;28680;45.642;13.756;2023-09-18T23:27:44;21.67;;;6.90;;
35646;SDS011;28680;45.642;13.756;2023-09-18T23:30:10;25.15;;;7.78;;
35646;SDS011;28680;45.642;13.756;2023-09-18T23:32:38;22.02;;;7.88;;
35646;SDS011;28680;45.642;13.756;2023-09-18T23:35:07;25.75;;;8.02;;
35646;SDS011;28680;45.642;13.756;2023-09-18T23:37:53;22.17;;;6.90;;
35646;SDS011;28680;45.642;13.756;2023-09-18T23:40:20;20.30;;;7.65;;
35646;SDS011;28680;45.642;13.756;2023-09-18T23:42:47;21.48;;;7.35;;
35646;SDS011;28680;45.642;13.756;2023-09-18T23:45:14;30.52;;;8.60;;
35646;SDS011;28680;45.642;13.756;2023-09-18T23:47:41;24.42;;;7.55;;
35646;SDS011;28680;45.642;13.756;2023-09-18T23:50:15;24.95;;;7.15;;
35646;SDS011;28680;45.642;13.756;2023-09-18T23:52:44;29.63;;;7.45;;
35646;SDS011;28680;45.642;13.756;2023-09-18T23:55:12;26.23;;;7.65;;
35646;SDS011;28680;45.642;13.756;2023-09-18T23:57:49;24.17;;;7.03;;
